URMMURMN

Guest
Details From URMM - Mineralnyye Vody
To URMN - Nalchik
Flight Number -
Tags Generated
Created
Modified
Stats Distance 50 nm / 93 km
Max Altitude 0 ft / 0 m
Waypoints 2
Social Downloads 3
Likes 0
Share VATSIM

Download

Looking for another format? Having issues loading an existing format? Contact us
Advertisement - Login to hide

Notes

Generated

Route

URMM URMN

ID Type Via Altitude Latitude Longitude Leg Dist Tot Dist Heading (true) Name
O URMM APT - 0 ft / 0 m 44.23442˚ 43.06126˚ - 0 nm - -
O URMN APT - 0 ft / 0 m 43.50825˚ 43.62443˚ 49 nm 49 nm 151° / 151° -

Altitude Profile

Advertisement - Login to hide

URMM

Details ICAO URMM (MRV)
Name MINERALNYYE VODY
Region Russia
Timezone Europe/Moscow (UTC+3.0)
Stats Elevation 1,054 ft / 321 m (AMSL)
Location 44.225073° 43.081891°
Runways 1
Magnetic Variation 7.388° E

METAR

URMM 170430Z 12005MPS 8000 -DZ OVC007 03/03 Q1022 R12/290050 NOSIG RMK MT OBSC QFE738/0984

Decode

TAF

TAF URMM 170159Z 1703/1803 10005G12MPS 3100 BR OVC011 TX06/1711Z TN00/1703Z TEMPO 1703/1708 11003G08MPS 0300 -DZ FG OVC002 BECMG 1708/1710 9999 NSW TEMPO 1715/1803 10003G08MPS 3100 BR

Decode

Departure Runways

ID Width Length Bearing (true) Bearing (mag) Surface Threshold Offset Overrun Length
12 197 ft / 60 m 12,766 ft / 3,891 m 122.28° 114.89° Concrete 0 ft / 0 m 240 ft / 73 m
30 197 ft / 60 m 12,766 ft / 3,891 m 302.31° 294.92° Concrete 0 ft / 0 m 250 ft / 76 m

URMN

Details ICAO URMN (NAL)
Name NALCHIK
Region Russia
Timezone Europe/Moscow (UTC+3.0)
Stats Elevation 1,462 ft / 446 m (AMSL)
Location 43.512854° 43.636583°
Runways 1
Magnetic Variation 7.185° E

METAR

URMN 170430Z 27001MPS 1500 BR OVC002 01/01 Q1021 R24/210155 NOSIG RMK QBB070 MT OBSC OBST OBSC QFE729

Decode

TAF

Not found

Destination Runways

ID Width Length Bearing (true) Bearing (mag) Surface Threshold Offset Overrun Length
06 138 ft / 42 m 7,256 ft / 2,212 m 62.40° 55.22° Asphalt 0 ft / 0 m 145 ft / 44 m
24 138 ft / 42 m 7,256 ft / 2,212 m 242.42° 235.24° Asphalt 0 ft / 0 m 160 ft / 49 m

Approach Navaids

Runway Type Ident Frequency Range Bearing (true) Bearing (mag) Slope Elevation
24 Localiser INL 110.50 MHz 18 nm / 33 km 241.33° 234.15° - 1,462 ft / 446 m (AMSL)
24 Glidescope INL 110.50 MHz 10 nm / 19 km 242.41° 235.23° 2.70° 1,462 ft / 446 m (AMSL)

Popular Alternatives